Time;durP1;ratioP1;P1;durP2;ratioP2;P2;SDS_P1;SDS_P2;PMS_P1;PMS_P2;Temp;Humidity;BMP_temperature;BMP_pressure;BME280_temperature;BME280_humidity;BME280_pressure;Samples;Min_cycle;Max_cycle;Signal;HPM_P1;HPM_P2
2022/10/12 00:00:16;;;;;;;;;;;13.40;89.20;;;;;;5073390;28;19961;-93
2022/10/12 00:02:42;;;;;;;;;;;13.40;89.30;;;;;;5077389;28;20469;-93
2022/10/12 00:05:08;;;;;;;;;;;13.30;88.80;;;;;;5077325;28;20408;-94
2022/10/12 00:07:33;;;;;;;;;;;13.20;88.40;;;;;;5077106;28;19946;-92
2022/10/12 00:09:59;;;;;;;;;;;13.10;88.70;;;;;;5060618;28;19950;-93
2022/10/12 00:12:24;;;;;;;;;;;13.10;89.00;;;;;;5056973;28;19989;-92
2022/10/12 00:14:50;;;;;;;;;;;13.10;89.00;;;;;;5057125;28;19939;-93
2022/10/12 00:17:15;;;;;;;;;;;13.10;89.50;;;;;;5073518;28;19956;-93
2022/10/12 00:19:41;;;;;;;;;;;13.20;90.20;;;;;;5076969;28;20032;-94
2022/10/12 00:22:06;;;;;;;;;;;13.30;90.40;;;;;;5077260;28;19939;-93
2022/10/12 00:24:32;;;;;;;;;;;13.30;90.30;;;;;;5077018;28;20441;-93
2022/10/12 00:26:58;;;;;;;;;;;13.40;90.20;;;;;;5076727;28;19954;-92
2022/10/12 00:29:23;;;;;;;;;;;13.40;90.00;;;;;;5076879;28;19950;-93
2022/10/12 00:31:49;;;;;;;;;;;13.40;89.90;;;;;;5076922;28;19987;-93
2022/10/12 00:34:14;;;;;;;;;;;13.30;89.70;;;;;;5076912;28;19983;-93
2022/10/12 00:36:40;;;;;;;;;;;13.10;89.30;;;;;;5076530;28;19950;-93
2022/10/12 00:39:07;;;;;;;;;;;13.10;89.70;;;;;;5076474;28;19984;-93
2022/10/12 00:41:34;;;;;;;;;;;13.10;90.00;;;;;;5076577;28;20414;-93
2022/10/12 00:43:59;;;;;;;;;;;13.10;90.50;;;;;;5076535;28;19949;-94
2022/10/12 00:46:29;;;;;;;;;;;13.20;90.90;;;;;;5076256;28;19944;-93
2022/10/12 00:49:13;;;;;;;;;;;13.30;90.80;;;;;;5076866;28;19945;-94
2022/10/12 00:51:40;;;;;;;;;;;13.30;90.70;;;;;;5076256;28;20043;-93
2022/10/12 00:54:08;;;;;;;;;;;13.30;90.20;;;;;;5076326;28;19967;-93
2022/10/12 00:56:37;;;;;;;;;;;13.30;90.10;;;;;;5076301;28;19946;-93
2022/10/12 00:59:05;;;;;;;;;;;13.30;90.10;;;;;;5076263;28;20012;-93
2022/10/12 01:01:32;;;;;;;;;;;13.30;90.10;;;;;;5076325;28;20455;-93
2022/10/12 01:03:58;;;;;;;;;;;13.40;89.70;;;;;;5091968;28;19950;-93
2022/10/12 01:06:24;;;;;;;;;;;13.40;89.40;;;;;;5076157;28;19938;-93
2022/10/12 01:08:50;;;;;;;;;;;13.40;88.80;;;;;;5076231;28;19938;-93
2022/10/12 01:11:15;;;;;;;;;;;13.50;88.40;;;;;;5075677;28;19947;-93
2022/10/12 01:13:41;;;;;;;;;;;13.50;88.10;;;;;;5076123;28;19938;-93
2022/10/12 01:16:18;;;;;;;;;;;13.40;88.10;;;;;;5075943;28;20297;-93
2022/10/12 01:18:47;;;;;;;;;;;13.40;88.80;;;;;;5075788;28;19951;-94
2022/10/12 01:21:16;;;;;;;;;;;13.30;89.00;;;;;;5075872;28;19952;-93
2022/10/12 01:23:48;;;;;;;;;;;13.30;88.80;;;;;;5075508;28;20041;-93
2022/10/12 01:26:33;;;;;;;;;;;13.30;89.00;;;;;;5075793;28;19938;-93
2022/10/12 01:29:11;;;;;;;;;;;13.40;88.60;;;;;;5075877;28;19948;-93
2022/10/12 01:31:51;;;;;;;;;;;13.40;88.30;;;;;;5075735;28;19935;-92
2022/10/12 01:34:21;;;;;;;;;;;13.40;88.10;;;;;;5075466;28;19945;-92
2022/10/12 01:36:53;;;;;;;;;;;13.50;88.10;;;;;;5075657;28;19974;-93
2022/10/12 01:39:28;;;;;;;;;;;13.50;88.50;;;;;;5075185;28;20448;-93
2022/10/12 01:41:55;;;;;;;;;;;13.50;88.30;;;;;;5074269;28;20038;-93
2022/10/12 01:44:22;;;;;;;;;;;13.60;88.10;;;;;;5075236;28;20014;-92
2022/10/12 01:46:47;;;;;;;;;;;13.60;87.90;;;;;;5075468;28;19935;-92
2022/10/12 01:49:16;;;;;;;;;;;13.50;87.70;;;;;;5069905;28;19985;-93
2022/10/12 01:51:48;;;;;;;;;;;13.50;87.80;;;;;;5055210;28;19986;-93
2022/10/12 01:54:33;;;;;;;;;;;13.50;87.70;;;;;;5071320;28;20041;-93
2022/10/12 01:57:04;;;;;;;;;;;13.50;87.40;;;;;;5075212;28;19940;-92
2022/10/12 01:59:33;;;;;;;;;;;13.40;87.50;;;;;;5075260;28;19963;-92
2022/10/12 02:02:01;;;;;;;;;;;13.50;87.20;;;;;;5075036;28;19944;-94
2022/10/12 02:04:32;;;;;;;;;;;13.50;87.10;;;;;;5074965;28;19938;-92
2022/10/12 02:07:00;;;;;;;;;;;13.60;87.10;;;;;;5075027;28;20376;-93
2022/10/12 02:09:27;;;;;;;;;;;13.50;87.40;;;;;;5074975;28;20026;-93
2022/10/12 02:11:56;;;;;;;;;;;13.40;87.50;;;;;;5074877;28;19942;-93
2022/10/12 02:14:51;;;;;;;;;;;13.40;87.70;;;;;;5070137;28;20041;-94
2022/10/12 02:17:18;;;;;;;;;;;13.50;87.40;;;;;;5058450;28;19973;-93
2022/10/12 02:19:47;;;;;;;;;;;13.40;86.90;;;;;;5054673;28;19958;-92
2022/10/12 02:22:13;;;;;;;;;;;13.40;86.90;;;;;;5054703;28;19960;-92
2022/10/12 02:24:41;;;;;;;;;;;13.40;87.00;;;;;;5070409;28;20403;-93
2022/10/12 02:27:07;;;;;;;;;;;13.50;87.30;;;;;;5074818;28;20021;-93
2022/10/12 02:29:36;;;;;;;;;;;13.60;87.00;;;;;;5074561;28;19944;-93
2022/10/12 02:32:01;;;;;;;;;;;13.60;87.20;;;;;;5074487;28;19940;-93
2022/10/12 02:34:33;;;;;;;;;;;13.60;87.40;;;;;;5074398;28;19943;-92
2022/10/12 02:37:05;;;;;;;;;;;13.60;87.30;;;;;;5074402;28;19967;-92
2022/10/12 02:39:36;;;;;;;;;;;13.70;87.40;;;;;;5073985;28;19971;-92
2022/10/12 02:42:07;;;;;;;;;;;13.80;87.40;;;;;;5074330;28;19966;-92
2022/10/12 02:44:34;;;;;;;;;;;13.80;87.20;;;;;;5074176;28;20030;-93
2022/10/12 02:47:01;;;;;;;;;;;13.80;87.00;;;;;;5074252;28;19980;-92
2022/10/12 02:49:27;;;;;;;;;;;13.90;86.90;;;;;;5074154;28;20029;-93
2022/10/12 02:51:53;;;;;;;;;;;13.80;86.30;;;;;;5072646;28;20008;-93
2022/10/12 02:54:19;;;;;;;;;;;13.60;86.50;;;;;;5061083;28;19949;-92
2022/10/12 02:56:45;;;;;;;;;;;13.30;85.20;;;;;;5054177;28;19940;-93
2022/10/12 02:59:12;;;;;;;;;;;13.30;86.60;;;;;;5053966;28;20014;-93
2022/10/12 03:01:38;;;;;;;;;;;13.30;87.30;;;;;;5070883;28;20463;-93
2022/10/12 03:04:03;;;;;;;;;;;13.40;87.40;;;;;;5073985;28;19979;-92
2022/10/12 03:06:29;;;;;;;;;;;13.50;87.60;;;;;;5073737;28;19940;-93
2022/10/12 03:08:56;;;;;;;;;;;13.60;87.50;;;;;;5073840;28;19940;-93
2022/10/12 03:11:22;;;;;;;;;;;13.60;87.40;;;;;;5088526;28;20014;-93
2022/10/12 03:13:50;;;;;;;;;;;13.60;87.50;;;;;;5072618;28;20294;-91
2022/10/12 03:16:16;;;;;;;;;;;13.60;87.40;;;;;;5073788;28;19949;-92
2022/10/12 03:18:41;;;;;;;;;;;13.60;87.50;;;;;;5073640;28;19945;-93
2022/10/12 03:21:07;;;;;;;;;;;13.50;87.90;;;;;;5073577;28;19947;-94
2022/10/12 03:23:33;;;;;;;;;;;13.60;87.60;;;;;;5073696;28;19947;-93
2022/10/12 03:25:58;;;;;;;;;;;13.50;87.20;;;;;;5073717;28;19943;-93
2022/10/12 03:28:24;;;;;;;;;;;13.60;87.10;;;;;;5073493;28;19943;-93
2022/10/12 03:30:49;;;;;;;;;;;13.40;87.30;;;;;;5073472;28;19993;-93
2022/10/12 03:33:15;;;;;;;;;;;13.40;87.30;;;;;;5072395;28;19947;-93
2022/10/12 03:35:44;;;;;;;;;;;13.40;87.50;;;;;;5073366;28;20032;-92
2022/10/12 03:38:10;;;;;;;;;;;13.40;88.00;;;;;;5073388;28;19939;-93
2022/10/12 03:40:36;;;;;;;;;;;13.40;87.90;;;;;;5073045;28;20075;-93
2022/10/12 03:43:02;;;;;;;;;;;13.40;87.60;;;;;;5088994;28;19938;-93
2022/10/12 03:45:27;;;;;;;;;;;13.40;87.20;;;;;;5073089;28;20451;-93
2022/10/12 03:47:53;;;;;;;;;;;13.40;86.90;;;;;;5072750;28;19959;-92
2022/10/12 03:50:18;;;;;;;;;;;13.30;86.80;;;;;;5056136;28;19950;-92
2022/10/12 03:52:44;;;;;;;;;;;13.00;87.60;;;;;;5068612;28;19958;-93
2022/10/12 03:55:09;;;;;;;;;;;12.90;87.80;;;;;;5068664;28;20401;-94
2022/10/12 03:57:35;;;;;;;;;;;12.90;88.00;;;;;;5056413;28;19950;-92
2022/10/12 04:00:00;;;;;;;;;;;12.90;87.80;;;;;;5073222;28;19960;-93
2022/10/12 04:02:26;;;;;;;;;;;12.80;88.30;;;;;;5073274;28;19943;-93
2022/10/12 04:04:52;;;;;;;;;;;12.90;88.30;;;;;;5073147;28;20312;-94
2022/10/12 04:07:18;;;;;;;;;;;12.90;87.70;;;;;;5073414;28;19944;-93
2022/10/12 04:09:43;;;;;;;;;;;12.90;87.80;;;;;;5073103;28;19940;-93
2022/10/12 04:12:09;;;;;;;;;;;12.90;88.00;;;;;;5073151;28;19933;-93
2022/10/12 04:14:34;;;;;;;;;;;12.90;88.80;;;;;;5088742;28;20325;-93
2022/10/12 04:17:00;;;;;;;;;;;12.80;89.00;;;;;;5073391;28;19939;-92
2022/10/12 04:19:25;;;;;;;;;;;12.80;89.50;;;;;;5072780;28;20310;-93
2022/10/12 04:21:51;;;;;;;;;;;12.80;89.90;;;;;;5063682;28;19946;-92
2022/10/12 04:24:17;;;;;;;;;;;12.80;89.80;;;;;;5052802;28;19942;-92
2022/10/12 04:26:42;;;;;;;;;;;12.50;89.60;;;;;;5053002;28;20308;-92
2022/10/12 04:29:10;;;;;;;;;;;12.40;89.70;;;;;;5068008;28;19992;-92
2022/10/12 04:31:35;;;;;;;;;;;12.10;89.70;;;;;;5072756;28;19940;-92
2022/10/12 04:34:01;;;;;;;;;;;12.00;90.50;;;;;;5058395;28;19955;-91
2022/10/12 04:36:26;;;;;;;;;;;11.90;90.70;;;;;;5053148;28;20336;-92
2022/10/12 04:38:52;;;;;;;;;;;12.20;91.30;;;;;;5065320;28;20340;-91
2022/10/12 04:41:18;;;;;;;;;;;12.40;91.90;;;;;;5072113;28;20399;-91
2022/10/12 04:43:43;;;;;;;;;;;12.50;91.70;;;;;;5072277;28;19966;-91
2022/10/12 04:46:09;;;;;;;;;;;12.50;91.50;;;;;;5072546;28;19948;-91
2022/10/12 04:48:34;;;;;;;;;;;12.40;90.80;;;;;;5075300;28;20021;-92
2022/10/12 04:51:00;;;;;;;;;;;12.60;91.00;;;;;;5075852;28;19959;-92
2022/10/12 04:53:26;;;;;;;;;;;12.60;91.00;;;;;;5076074;28;19949;-90
2022/10/12 04:55:51;;;;;;;;;;;12.70;90.60;;;;;;5072682;28;20421;-91
2022/10/12 04:58:17;;;;;;;;;;;12.80;90.50;;;;;;5067085;28;19943;-91
2022/10/12 05:00:42;;;;;;;;;;;12.90;90.00;;;;;;5061818;28;19966;-90
2022/10/12 05:03:08;;;;;;;;;;;12.90;89.30;;;;;;5073490;28;19946;-91
2022/10/12 05:05:34;;;;;;;;;;;13.10;89.40;;;;;;5072802;28;19958;-91
2022/10/12 05:08:01;;;;;;;;;;;13.50;88.80;;;;;;5075529;28;19944;-92
2022/10/12 05:10:26;;;;;;;;;;;13.50;88.20;;;;;;5071299;28;19943;-91
2022/10/12 05:12:52;;;;;;;;;;;13.50;88.10;;;;;;5075716;28;20421;-91
2022/10/12 05:15:17;;;;;;;;;;;13.70;87.00;;;;;;5074054;28;19944;-91
2022/10/12 05:17:43;;;;;;;;;;;13.70;85.80;;;;;;5062564;28;19944;-91
2022/10/12 05:20:09;;;;;;;;;;;13.40;86.10;;;;;;5060107;28;19968;-91
2022/10/12 05:22:34;;;;;;;;;;;13.70;86.60;;;;;;5055256;28;19949;-91
2022/10/12 05:25:00;;;;;;;;;;;13.90;86.10;;;;;;5058846;28;19949;-91
2022/10/12 05:27:25;;;;;;;;;;;14.00;85.90;;;;;;5072184;28;19955;-90
2022/10/12 05:29:51;;;;;;;;;;;14.20;85.60;;;;;;5066881;28;20399;-90
2022/10/12 05:32:16;;;;;;;;;;;14.20;84.60;;;;;;5070822;28;20393;-91
2022/10/12 05:34:42;;;;;;;;;;;14.20;84.50;;;;;;5066549;28;20035;-91
2022/10/12 05:37:08;;;;;;;;;;;14.20;85.00;;;;;;5069962;28;19944;-91
2022/10/12 05:39:35;;;;;;;;;;;14.20;86.00;;;;;;5071597;28;20054;-89
2022/10/12 05:42:01;;;;;;;;;;;14.30;85.70;;;;;;5054884;28;19936;-90
2022/10/12 05:44:26;;;;;;;;;;;14.30;85.80;;;;;;5068102;28;19941;-90
2022/10/12 05:47:19;;;;;;;;;;;14.30;85.70;;;;;;5068160;28;19965;-90
2022/10/12 05:49:45;;;;;;;;;;;14.30;85.70;;;;;;5064947;28;20046;-90
2022/10/12 05:52:10;;;;;;;;;;;14.20;86.50;;;;;;5044064;28;19972;-89
2022/10/12 05:54:36;;;;;;;;;;;14.10;86.20;;;;;;5045949;28;19952;-91
2022/10/12 05:57:01;;;;;;;;;;;13.80;84.90;;;;;;5042950;28;19962;-91
2022/10/12 05:59:27;;;;;;;;;;;13.60;85.30;;;;;;5039449;28;19941;-90
2022/10/12 06:01:52;;;;;;;;;;;13.50;86.30;;;;;;5046094;28;19949;-90
2022/10/12 06:04:18;;;;;;;;;;;13.40;86.70;;;;;;5035324;28;19951;-92
2022/10/12 06:06:44;;;;;;;;;;;13.40;87.90;;;;;;5042638;28;20092;-89
2022/10/12 06:09:11;;;;;;;;;;;13.40;88.70;;;;;;5043501;28;20647;-89
2022/10/12 06:11:36;;;;;;;;;;;13.50;89.00;;;;;;5049308;28;19951;-88
2022/10/12 06:14:02;;;;;;;;;;;13.70;88.70;;;;;;5040574;28;19997;-89
2022/10/12 06:16:28;;;;;;;;;;;13.80;88.00;;;;;;5036527;28;19942;-90
2022/10/12 06:18:53;;;;;;;;;;;14.00;87.60;;;;;;5040097;28;19950;-90
2022/10/12 06:23:21;;;;;;;;;;;14.10;86.80;;;;;;5139536;27;19956;-92
2022/10/12 06:27:25;;;;;;;;;;;14.60;83.50;;;;;;5085347;27;19956;-90
2022/10/12 06:39:39;;;;;;;;;;;14.80;83.10;;;;;;5105110;27;19948;-91
2022/10/12 06:42:06;;;;;;;;;;;14.40;85.20;;;;;;5104377;28;19949;-90
2022/10/12 06:44:31;;;;;;;;;;;14.30;85.70;;;;;;5104012;28;19944;-90
2022/10/12 06:46:57;;;;;;;;;;;14.40;84.70;;;;;;5107975;27;19960;-91
2022/10/12 06:49:22;;;;;;;;;;;14.40;85.50;;;;;;5105986;28;20360;-90
2022/10/12 06:51:48;;;;;;;;;;;14.40;85.10;;;;;;5102581;28;19960;-90
2022/10/12 06:54:13;;;;;;;;;;;14.40;85.40;;;;;;5107370;28;20397;-91
2022/10/12 06:56:39;;;;;;;;;;;14.50;86.40;;;;;;5100933;28;20464;-92
2022/10/12 06:59:05;;;;;;;;;;;14.70;86.80;;;;;;5109466;28;20009;-92
2022/10/12 07:01:30;;;;;;;;;;;14.80;86.70;;;;;;5107243;28;19950;-90
2022/10/12 07:03:56;;;;;;;;;;;15.00;86.40;;;;;;5094584;28;19952;-90
2022/10/12 13:34:21;;;;;;;;;;;28.70;36.10;;;;;;5070016;27;2197057;-96
2022/10/12 13:37:00;;;;;;;;;;;28.80;36.80;;;;;;5119066;28;19942;-94
2022/10/12 13:39:27;;;;;;;;;;;29.10;36.10;;;;;;5127806;28;20002;-94
2022/10/12 13:41:54;;;;;;;;;;;29.00;37.00;;;;;;5123575;28;19940;-94
2022/10/12 13:52:09;;;;;;;;;;;28.90;37.50;;;;;;5076877;27;2016858;-89
2022/10/12 13:54:42;;;;;;;;;;;28.80;36.90;;;;;;5130065;27;19987;-91
2022/10/12 13:57:20;;;;;;;;;;;28.90;38.00;;;;;;5143757;27;19959;-91
2022/10/12 13:59:48;;;;;;;;;;;28.70;37.50;;;;;;5137197;27;19945;-90
2022/10/12 14:02:32;;;;;;;;;;;28.80;36.40;;;;;;5129078;27;19949;-91
2022/10/12 14:04:58;;;;;;;;;;;29.00;36.90;;;;;;5142627;27;20398;-91
2022/10/12 14:07:31;;;;;;;;;;;29.00;36.70;;;;;;5137847;27;20416;-91
2022/10/12 14:09:58;;;;;;;;;;;29.20;36.20;;;;;;5141289;27;19939;-92
2022/10/12 14:12:24;;;;;;;;;;;29.20;35.90;;;;;;5143816;27;19998;-92
2022/10/12 14:14:51;;;;;;;;;;;28.70;37.70;;;;;;5138576;27;19981;-91
2022/10/12 14:17:17;;;;;;;;;;;29.10;37.10;;;;;;5141266;27;20003;-91
2022/10/12 14:19:48;;;;;;;;;;;29.30;36.20;;;;;;5146557;27;20333;-92
2022/10/12 14:22:30;;;;;;;;;;;29.10;36.20;;;;;;5151126;27;19990;-92
2022/10/12 14:25:09;;;;;;;;;;;29.10;35.80;;;;;;5147319;27;20400;-91
2022/10/12 14:27:36;;;;;;;;;;;28.80;36.10;;;;;;5146847;27;20333;-92
2022/10/12 14:30:14;;;;;;;;;;;28.70;37.60;;;;;;5146822;27;19947;-92
2022/10/12 14:32:41;;;;;;;;;;;28.60;38.70;;;;;;5146176;27;19948;-91
2022/10/12 14:35:12;;;;;;;;;;;28.80;38.20;;;;;;5154097;27;20034;-93
2022/10/12 14:37:38;;;;;;;;;;;29.10;37.30;;;;;;5151449;27;19972;-93
2022/10/12 14:40:19;;;;;;;;;;;29.20;36.50;;;;;;5146083;27;20347;-91
2022/10/12 14:42:56;;;;;;;;;;;28.90;38.10;;;;;;5136142;27;19950;-90
2022/10/12 14:45:23;;;;;;;;;;;28.80;37.90;;;;;;5137172;27;19944;-91
2022/10/12 14:47:48;;;;;;;;;;;28.90;37.00;;;;;;5137443;27;19985;-92
2022/10/12 14:50:17;;;;;;;;;;;28.80;38.50;;;;;;5134215;27;19964;-92
2022/10/12 14:52:44;;;;;;;;;;;29.00;38.40;;;;;;5138533;27;19988;-94
2022/10/12 14:55:20;;;;;;;;;;;29.20;37.10;;;;;;5148122;27;19992;-92
2022/10/12 14:57:46;;;;;;;;;;;29.60;36.10;;;;;;5135759;27;19949;-93
2022/10/12 15:00:13;;;;;;;;;;;29.50;37.30;;;;;;5124191;28;19944;-93
2022/10/12 15:17:12;;;;;;;;;;;29.30;38.10;;;;;;5112005;27;19944;-96
2022/10/12 15:23:13;;;;;;;;;;;27.50;42.50;;;;;;5113424;27;19955;-89
2022/10/12 15:25:38;;;;;;;;;;;27.10;42.20;;;;;;5104349;28;19987;-91
2022/10/12 15:28:04;;;;;;;;;;;27.30;42.80;;;;;;5100822;28;20008;-89
2022/10/12 15:30:30;;;;;;;;;;;27.20;43.40;;;;;;5100797;28;20335;-89
2022/10/12 15:32:56;;;;;;;;;;;27.10;42.60;;;;;;5083179;28;19949;-89
2022/10/12 15:35:23;;;;;;;;;;;27.10;42.60;;;;;;5090367;28;19948;-87
2022/10/12 15:37:49;;;;;;;;;;;27.00;46.30;;;;;;5089345;28;20398;-88
2022/10/12 15:40:15;;;;;;;;;;;26.40;47.70;;;;;;5098242;28;19992;-88
2022/10/12 15:42:41;;;;;;;;;;;25.40;50.50;;;;;;5095522;28;19963;-88
2022/10/12 15:45:17;;;;;;;;;;;24.70;52.50;;;;;;5086058;28;19948;-88
2022/10/12 15:47:44;;;;;;;;;;;24.10;54.30;;;;;;5074028;28;19943;-88
2022/10/12 15:50:10;;;;;;;;;;;23.60;57.30;;;;;;5105088;28;19951;-88
2022/10/12 15:52:35;;;;;;;;;;;23.20;58.10;;;;;;5092280;28;19960;-88
2022/10/12 15:55:01;;;;;;;;;;;22.80;58.00;;;;;;5085716;28;19961;-88
2022/10/12 15:57:27;;;;;;;;;;;22.50;58.70;;;;;;5099236;28;19970;-87
2022/10/12 15:59:52;;;;;;;;;;;22.30;61.60;;;;;;5090012;28;19934;-87
2022/10/12 16:02:18;;;;;;;;;;;21.90;62.90;;;;;;5091039;28;19978;-88
2022/10/12 16:04:44;;;;;;;;;;;21.80;64.70;;;;;;5106114;28;19953;-88
2022/10/12 16:07:09;;;;;;;;;;;21.60;64.40;;;;;;5109486;28;19944;-88
2022/10/12 16:09:35;;;;;;;;;;;21.50;66.40;;;;;;5110097;28;19933;-88
2022/10/12 16:12:00;;;;;;;;;;;21.40;64.50;;;;;;5095603;28;20089;-87
2022/10/12 16:14:26;;;;;;;;;;;21.40;64.20;;;;;;5080789;28;19950;-87
2022/10/12 16:16:51;;;;;;;;;;;21.40;63.90;;;;;;5073333;28;20327;-88
2022/10/12 16:19:17;;;;;;;;;;;21.30;63.40;;;;;;5071946;28;20172;-88
2022/10/12 16:21:42;;;;;;;;;;;21.20;64.50;;;;;;5087302;28;19969;-88
2022/10/12 16:24:08;;;;;;;;;;;21.10;64.50;;;;;;5095676;28;19955;-88
2022/10/12 16:26:33;;;;;;;;;;;21.00;65.30;;;;;;5104773;28;20298;-88
2022/10/12 16:28:59;;;;;;;;;;;20.90;65.40;;;;;;5104707;28;20036;-88
2022/10/12 16:31:24;;;;;;;;;;;20.80;65.80;;;;;;5096691;28;19949;-88
2022/10/12 16:33:50;;;;;;;;;;;20.60;66.20;;;;;;5099866;28;19974;-88
2022/10/12 16:36:16;;;;;;;;;;;20.30;66.80;;;;;;5077931;28;19942;-88
2022/10/12 16:38:42;;;;;;;;;;;20.10;68.10;;;;;;5077366;28;19939;-88
2022/10/12 16:41:11;;;;;;;;;;;20.10;68.20;;;;;;5095879;28;20000;-88
2022/10/12 16:43:37;;;;;;;;;;;20.10;68.30;;;;;;5095894;28;19946;-88
2022/10/12 16:46:03;;;;;;;;;;;20.00;68.50;;;;;;5095834;28;19987;-88
2022/10/12 16:48:29;;;;;;;;;;;20.00;69.10;;;;;;5095357;28;19941;-88
2022/10/12 16:50:54;;;;;;;;;;;19.90;68.60;;;;;;5075781;28;19956;-88
2022/10/12 16:53:20;;;;;;;;;;;19.90;68.80;;;;;;5075470;28;19949;-87
2022/10/12 16:55:46;;;;;;;;;;;19.80;69.30;;;;;;5075691;28;20038;-88
2022/10/12 16:58:11;;;;;;;;;;;19.70;70.30;;;;;;5075367;28;20424;-88
2022/10/12 17:00:38;;;;;;;;;;;19.60;71.50;;;;;;5092461;28;20002;-88
2022/10/12 17:03:04;;;;;;;;;;;19.30;72.20;;;;;;5095605;28;19941;-88
2022/10/12 17:05:29;;;;;;;;;;;19.10;72.40;;;;;;5095448;28;19941;-88
2022/10/12 17:07:57;;;;;;;;;;;18.90;73.10;;;;;;5095443;28;19938;-88
2022/10/12 17:10:22;;;;;;;;;;;18.80;74.10;;;;;;5079923;28;20035;-88
2022/10/12 17:12:48;;;;;;;;;;;18.70;73.90;;;;;;5075043;28;20452;-88
2022/10/12 17:15:13;;;;;;;;;;;18.50;74.50;;;;;;5075081;28;19937;-88
2022/10/12 17:17:39;;;;;;;;;;;18.40;75.10;;;;;;5074998;28;20418;-88
2022/10/12 17:20:05;;;;;;;;;;;18.30;76.00;;;;;;5087197;28;19973;-88
2022/10/12 17:22:30;;;;;;;;;;;18.30;75.70;;;;;;5078657;28;19986;-88
2022/10/12 17:24:56;;;;;;;;;;;18.30;76.30;;;;;;5094729;28;20419;-88
2022/10/12 17:27:22;;;;;;;;;;;18.20;76.10;;;;;;5095054;28;20035;-88
2022/10/12 17:29:47;;;;;;;;;;;18.10;75.80;;;;;;5085552;28;19961;-88
2022/10/12 17:32:13;;;;;;;;;;;18.00;75.80;;;;;;5074759;28;20472;-88
2022/10/12 17:34:40;;;;;;;;;;;18.00;75.60;;;;;;5074717;28;20417;-88
2022/10/12 17:37:06;;;;;;;;;;;18.00;76.30;;;;;;5074923;28;19965;-88
2022/10/12 17:39:32;;;;;;;;;;;18.00;76.30;;;;;;5080798;28;20397;-88
2022/10/12 17:41:58;;;;;;;;;;;17.90;76.50;;;;;;5094645;28;20385;-88
2022/10/12 17:44:24;;;;;;;;;;;17.90;76.30;;;;;;5093746;28;19973;-88
2022/10/12 17:46:50;;;;;;;;;;;17.80;77.30;;;;;;5094338;28;20323;-88
2022/10/12 17:49:16;;;;;;;;;;;17.80;77.70;;;;;;5094291;28;19939;-88
2022/10/12 17:51:45;;;;;;;;;;;17.70;77.10;;;;;;5094481;28;19966;-88
2022/10/12 17:54:11;;;;;;;;;;;17.60;77.30;;;;;;5093321;28;19947;-88
2022/10/12 17:56:37;;;;;;;;;;;17.50;78.20;;;;;;5094812;28;20368;-88
2022/10/12 17:59:02;;;;;;;;;;;17.30;78.90;;;;;;5094417;28;19945;-88
2022/10/12 18:01:29;;;;;;;;;;;17.30;79.80;;;;;;5094306;28;20025;-88
2022/10/12 18:03:57;;;;;;;;;;;17.30;81.00;;;;;;5093072;28;19948;-88
2022/10/12 18:06:23;;;;;;;;;;;17.30;81.90;;;;;;5093022;28;20002;-88
2022/10/12 18:08:49;;;;;;;;;;;17.20;82.30;;;;;;5094518;28;20390;-88
2022/10/12 18:11:16;;;;;;;;;;;17.20;83.20;;;;;;5094525;28;19938;-88
2022/10/12 18:13:44;;;;;;;;;;;17.10;83.40;;;;;;5094170;28;20417;-88
2022/10/12 18:16:09;;;;;;;;;;;17.10;82.20;;;;;;5094150;28;19935;-88
2022/10/12 18:18:36;;;;;;;;;;;17.00;81.30;;;;;;5094106;28;19952;-88
2022/10/12 18:21:05;;;;;;;;;;;17.00;83.10;;;;;;5093806;28;19946;-88
2022/10/12 18:23:31;;;;;;;;;;;16.90;83.40;;;;;;5080411;28;20046;-88
2022/10/12 18:26:00;;;;;;;;;;;16.90;83.20;;;;;;5054432;28;20022;-88
2022/10/12 18:28:26;;;;;;;;;;;16.90;82.80;;;;;;5064056;28;20178;-88
2022/10/12 18:30:51;;;;;;;;;;;16.80;83.40;;;;;;5053658;28;19940;-88
2022/10/12 18:33:17;;;;;;;;;;;16.90;84.00;;;;;;5056040;28;19959;-88
2022/10/12 18:35:42;;;;;;;;;;;16.80;83.10;;;;;;5073537;28;20056;-88
2022/10/12 18:38:08;;;;;;;;;;;16.80;82.70;;;;;;5073490;28;19950;-88
2022/10/12 18:40:35;;;;;;;;;;;16.70;82.80;;;;;;5073479;28;19945;-88
2022/10/12 18:43:00;;;;;;;;;;;16.70;82.90;;;;;;5071155;28;19964;-88
2022/10/12 18:45:27;;;;;;;;;;;16.70;83.60;;;;;;5073085;28;20037;-88
2022/10/12 18:47:52;;;;;;;;;;;16.60;83.70;;;;;;5073250;28;19955;-88
2022/10/12 18:50:18;;;;;;;;;;;16.50;83.00;;;;;;5073344;28;19941;-88
2022/10/12 18:52:43;;;;;;;;;;;16.50;84.40;;;;;;5073200;28;19957;-88
2022/10/12 18:55:09;;;;;;;;;;;16.40;83.50;;;;;;5071951;28;19949;-88
2022/10/12 18:57:35;;;;;;;;;;;16.30;83.60;;;;;;5072943;28;19944;-88
2022/10/12 19:00:01;;;;;;;;;;;16.20;83.50;;;;;;5073214;28;20312;-88
2022/10/12 19:02:26;;;;;;;;;;;16.20;85.80;;;;;;5071770;28;19962;-88
2022/10/12 19:04:52;;;;;;;;;;;16.20;85.60;;;;;;5053922;28;19950;-88
2022/10/12 19:07:17;;;;;;;;;;;16.10;85.10;;;;;;5053067;28;19938;-88
2022/10/12 19:09:43;;;;;;;;;;;16.10;84.80;;;;;;5053090;28;19943;-88
2022/10/12 19:12:08;;;;;;;;;;;16.00;85.70;;;;;;5053036;28;19936;-88
2022/10/12 19:14:34;;;;;;;;;;;16.00;85.50;;;;;;5069964;28;20322;-88
2022/10/12 19:16:59;;;;;;;;;;;16.00;85.30;;;;;;5073062;28;20307;-88
2022/10/12 19:19:25;;;;;;;;;;;15.80;83.80;;;;;;5073028;28;20361;-88
2022/10/12 19:21:52;;;;;;;;;;;15.80;85.40;;;;;;5072741;28;20326;-88
2022/10/12 19:24:18;;;;;;;;;;;15.80;84.90;;;;;;5071095;28;19948;-88
2022/10/12 19:26:44;;;;;;;;;;;15.80;86.10;;;;;;5062604;28;19995;-88
2022/10/12 19:29:10;;;;;;;;;;;15.70;85.30;;;;;;5052958;28;19936;-88
2022/10/12 19:31:36;;;;;;;;;;;15.70;85.60;;;;;;5052871;28;20089;-88
2022/10/12 19:34:04;;;;;;;;;;;15.60;86.20;;;;;;5052476;28;19956;-88
2022/10/12 19:36:31;;;;;;;;;;;15.60;86.00;;;;;;5053170;28;20053;-88
2022/10/12 19:38:58;;;;;;;;;;;15.60;86.60;;;;;;5053060;28;19943;-88
2022/10/12 19:41:24;;;;;;;;;;;15.70;86.80;;;;;;5052490;28;20053;-88
2022/10/12 19:43:49;;;;;;;;;;;15.60;86.30;;;;;;5053087;28;19945;-88
2022/10/12 19:46:15;;;;;;;;;;;15.60;86.00;;;;;;5052763;28;19943;-88
2022/10/12 19:48:41;;;;;;;;;;;15.60;85.80;;;;;;5052752;28;19950;-88
2022/10/12 19:51:09;;;;;;;;;;;15.50;85.80;;;;;;5052107;28;20371;-88
2022/10/12 19:53:35;;;;;;;;;;;15.60;87.30;;;;;;5053223;28;19988;-88
2022/10/12 19:56:02;;;;;;;;;;;15.60;87.00;;;;;;5052686;28;19943;-88
2022/10/12 19:58:27;;;;;;;;;;;15.70;87.50;;;;;;5052644;28;20392;-88
2022/10/12 20:00:59;;;;;;;;;;;15.60;87.00;;;;;;5052607;28;19941;-88
2022/10/12 20:03:24;;;;;;;;;;;15.60;86.90;;;;;;5069592;28;20040;-88
2022/10/12 20:05:50;;;;;;;;;;;15.60;86.50;;;;;;5105068;28;20045;-88
2022/10/12 20:08:15;;;;;;;;;;;15.50;86.20;;;;;;5073455;28;19940;-88
2022/10/12 20:10:41;;;;;;;;;;;15.40;86.10;;;;;;5076309;28;19945;-88
2022/10/12 20:13:06;;;;;;;;;;;15.40;85.80;;;;;;5074905;28;19951;-88
2022/10/12 20:15:32;;;;;;;;;;;15.40;85.70;;;;;;5076223;28;19947;-88
2022/10/12 20:17:58;;;;;;;;;;;15.40;85.50;;;;;;5076149;28;19942;-88
2022/10/12 20:20:23;;;;;;;;;;;15.40;85.00;;;;;;5076067;28;19976;-88
2022/10/12 20:22:49;;;;;;;;;;;15.30;85.00;;;;;;5064328;28;19977;-88
2022/10/12 20:25:14;;;;;;;;;;;15.30;84.20;;;;;;5055698;28;19995;-88
2022/10/12 20:27:40;;;;;;;;;;;15.30;84.30;;;;;;5073338;28;20056;-88
2022/10/12 20:30:05;;;;;;;;;;;15.30;85.20;;;;;;5075899;28;20416;-88
2022/10/12 20:32:32;;;;;;;;;;;15.30;85.10;;;;;;5074726;28;19996;-88
2022/10/12 20:34:58;;;;;;;;;;;15.30;85.60;;;;;;5075843;28;20408;-88
2022/10/12 20:37:24;;;;;;;;;;;15.40;85.70;;;;;;5073792;28;20036;-88
2022/10/12 20:39:50;;;;;;;;;;;15.40;85.40;;;;;;5075723;28;20348;-88
2022/10/12 20:42:15;;;;;;;;;;;15.40;85.40;;;;;;5071660;28;19973;-88
2022/10/12 20:44:41;;;;;;;;;;;15.30;84.60;;;;;;5075688;28;19940;-88
2022/10/12 20:47:06;;;;;;;;;;;15.30;84.80;;;;;;5075621;28;19946;-88
2022/10/12 20:49:32;;;;;;;;;;;15.30;86.70;;;;;;5075634;28;19947;-87
2022/10/12 20:51:57;;;;;;;;;;;15.30;86.30;;;;;;5059924;28;20013;-88
2022/10/12 20:54:23;;;;;;;;;;;15.30;85.80;;;;;;5055504;28;19946;-88
2022/10/12 20:56:50;;;;;;;;;;;15.20;85.20;;;;;;5055439;28;19940;-88
2022/10/12 20:59:16;;;;;;;;;;;15.10;86.00;;;;;;5055442;28;19962;-88
2022/10/12 21:01:42;;;;;;;;;;;15.10;86.60;;;;;;5066260;28;20467;-88
2022/10/12 21:04:09;;;;;;;;;;;15.10;86.30;;;;;;5074425;28;20036;-88
2022/10/12 21:06:35;;;;;;;;;;;15.00;85.90;;;;;;5072149;28;20309;-88
2022/10/12 21:09:00;;;;;;;;;;;15.00;85.80;;;;;;5075272;28;19940;-87
2022/10/12 21:11:26;;;;;;;;;;;14.90;85.90;;;;;;5073835;28;20021;-88
2022/10/12 21:13:51;;;;;;;;;;;14.90;86.00;;;;;;5058542;28;20004;-87
2022/10/12 21:16:17;;;;;;;;;;;14.90;87.90;;;;;;5055341;28;20312;-88
2022/10/12 21:18:43;;;;;;;;;;;14.90;87.70;;;;;;5055217;28;19940;-87
2022/10/12 21:21:11;;;;;;;;;;;14.90;86.90;;;;;;5054993;28;19981;-87